sensor_id;sensor_type;location;lat;lon;timestamp;pressure;altitude;pressure_sealevel;temperature;humidity
18858;BME280;9558;50.178;8.370;2023-11-18T00:01:19;99073.06;;;3.67;100.00
18858;BME280;9558;50.178;8.370;2023-11-18T00:04:07;99076.53;;;3.66;100.00
18858;BME280;9558;50.178;8.370;2023-11-18T00:07:01;99076.53;;;3.66;100.00
18858;BME280;9558;50.178;8.370;2023-11-18T00:09:49;99066.28;;;3.66;100.00
18858;BME280;9558;50.178;8.370;2023-11-18T00:12:36;99062.81;;;3.67;100.00
18858;BME280;9558;50.178;8.370;2023-11-18T00:15:26;99064.69;;;3.65;100.00
18858;BME280;9558;50.178;8.370;2023-11-18T00:18:13;99064.25;;;3.71;100.00
18858;BME280;9558;50.178;8.370;2023-11-18T00:21:01;99052.97;;;3.73;100.00
18858;BME280;9558;50.178;8.370;2023-11-18T00:23:47;99058.66;;;3.77;100.00
18858;BME280;9558;50.178;8.370;2023-11-18T00:26:34;99052.84;;;3.75;100.00
18858;BME280;9558;50.178;8.370;2023-11-18T00:29:21;99053.78;;;3.74;100.00
18858;BME280;9558;50.178;8.370;2023-11-18T00:32:08;99043.06;;;3.69;100.00
18858;BME280;9558;50.178;8.370;2023-11-18T00:34:55;99040.91;;;3.62;100.00
18858;BME280;9558;50.178;8.370;2023-11-18T00:37:43;99058.38;;;3.57;100.00
18858;BME280;9558;50.178;8.370;2023-11-18T00:40:30;99054.84;;;3.58;100.00
18858;BME280;9558;50.178;8.370;2023-11-18T00:43:17;99057.41;;;3.58;100.00
18858;BME280;9558;50.178;8.370;2023-11-18T00:46:04;99051.50;;;3.58;100.00
18858;BME280;9558;50.178;8.370;2023-11-18T00:48:50;99060.81;;;3.59;100.00
18858;BME280;9558;50.178;8.370;2023-11-18T00:51:37;99066.03;;;3.57;100.00
18858;BME280;9558;50.178;8.370;2023-11-18T00:54:25;99071.16;;;3.57;100.00
18858;BME280;9558;50.178;8.370;2023-11-18T00:57:12;99061.63;;;3.59;100.00
18858;BME280;9558;50.178;8.370;2023-11-18T00:59:59;99055.81;;;3.57;100.00
18858;BME280;9558;50.178;8.370;2023-11-18T01:02:45;99059.50;;;3.53;100.00
18858;BME280;9558;50.178;8.370;2023-11-18T01:05:34;99059.72;;;3.50;100.00
18858;BME280;9558;50.178;8.370;2023-11-18T01:08:20;99061.78;;;3.45;100.00
18858;BME280;9558;50.178;8.370;2023-11-18T01:11:08;99059.44;;;3.42;100.00
18858;BME280;9558;50.178;8.370;2023-11-18T01:13:55;99064.56;;;3.42;100.00
18858;BME280;9558;50.178;8.370;2023-11-18T01:16:42;99057.00;;;3.40;100.00
18858;BME280;9558;50.178;8.370;2023-11-18T01:19:29;99061.88;;;3.43;100.00
18858;BME280;9558;50.178;8.370;2023-11-18T01:22:16;99061.66;;;3.46;100.00
18858;BME280;9558;50.178;8.370;2023-11-18T01:25:04;99071.78;;;3.48;100.00
18858;BME280;9558;50.178;8.370;2023-11-18T01:27:53;99073.31;;;3.51;100.00
18858;BME280;9558;50.178;8.370;2023-11-18T01:30:39;99076.00;;;3.49;100.00
18858;BME280;9558;50.178;8.370;2023-11-18T01:33:26;99072.81;;;3.45;100.00
18858;BME280;9558;50.178;8.370;2023-11-18T01:36:13;99068.53;;;3.46;100.00
18858;BME280;9558;50.178;8.370;2023-11-18T01:39:00;99072.72;;;3.47;100.00
18858;BME280;9558;50.178;8.370;2023-11-18T01:41:47;99065.97;;;3.46;100.00
18858;BME280;9558;50.178;8.370;2023-11-18T01:44:36;99061.50;;;3.37;100.00
18858;BME280;9558;50.178;8.370;2023-11-18T01:47:23;99067.03;;;3.31;100.00
18858;BME280;9558;50.178;8.370;2023-11-18T01:50:12;99068.88;;;3.28;100.00
18858;BME280;9558;50.178;8.370;2023-11-18T01:52:59;99062.34;;;3.24;100.00
18858;BME280;9558;50.178;8.370;2023-11-18T01:55:47;99067.50;;;3.11;100.00
18858;BME280;9558;50.178;8.370;2023-11-18T01:58:34;99058.78;;;3.14;100.00
18858;BME280;9558;50.178;8.370;2023-11-18T02:01:23;99059.91;;;3.10;100.00
18858;BME280;9558;50.178;8.370;2023-11-18T02:04:10;99055.66;;;2.98;100.00
18858;BME280;9558;50.178;8.370;2023-11-18T02:06:58;99062.81;;;2.92;100.00
18858;BME280;9558;50.178;8.370;2023-11-18T02:09:49;99065.91;;;2.85;100.00
18858;BME280;9558;50.178;8.370;2023-11-18T02:12:44;99065.25;;;2.81;100.00
18858;BME280;9558;50.178;8.370;2023-11-18T02:15:33;99071.41;;;2.79;100.00
18858;BME280;9558;50.178;8.370;2023-11-18T02:18:23;99075.91;;;2.75;100.00
18858;BME280;9558;50.178;8.370;2023-11-18T02:21:11;99072.44;;;2.76;100.00
18858;BME280;9558;50.178;8.370;2023-11-18T02:23:59;99075.81;;;2.76;100.00
18858;BME280;9558;50.178;8.370;2023-11-18T02:26:48;99090.13;;;2.79;100.00
18858;BME280;9558;50.178;8.370;2023-11-18T02:29:37;99080.22;;;2.74;100.00
18858;BME280;9558;50.178;8.370;2023-11-18T02:32:29;99078.56;;;2.73;100.00
18858;BME280;9558;50.178;8.370;2023-11-18T02:35:21;99081.94;;;2.74;100.00
18858;BME280;9558;50.178;8.370;2023-11-18T02:38:11;99071.94;;;2.71;100.00
18858;BME280;9558;50.178;8.370;2023-11-18T02:41:02;99071.94;;;2.71;100.00
18858;BME280;9558;50.178;8.370;2023-11-18T02:43:56;99070.28;;;2.70;100.00
18858;BME280;9558;50.178;8.370;2023-11-18T02:46:43;99077.94;;;2.70;100.00
18858;BME280;9558;50.178;8.370;2023-11-18T02:49:30;99069.38;;;2.71;100.00
18858;BME280;9558;50.178;8.370;2023-11-18T02:52:17;99078.06;;;2.68;100.00
18858;BME280;9558;50.178;8.370;2023-11-18T02:55:05;99072.84;;;2.70;100.00
18858;BME280;9558;50.178;8.370;2023-11-18T02:57:53;99069.38;;;2.71;100.00
18858;BME280;9558;50.178;8.370;2023-11-18T03:00:41;99064.25;;;2.71;100.00
18858;BME280;9558;50.178;8.370;2023-11-18T03:03:29;99053.50;;;2.66;100.00
18858;BME280;9558;50.178;8.370;2023-11-18T03:06:17;99056.06;;;2.66;100.00
18858;BME280;9558;50.178;8.370;2023-11-18T03:09:03;99058.13;;;2.61;100.00
18858;BME280;9558;50.178;8.370;2023-11-18T03:11:52;99061.91;;;2.55;100.00
18858;BME280;9558;50.178;8.370;2023-11-18T03:14:40;99065.47;;;2.52;100.00
18858;BME280;9558;50.178;8.370;2023-11-18T03:17:28;99053.81;;;2.48;100.00
18858;BME280;9558;50.178;8.370;2023-11-18T03:20:15;99054.94;;;2.44;100.00
18858;BME280;9558;50.178;8.370;2023-11-18T03:23:02;99050.03;;;2.41;100.00
18858;BME280;9558;50.178;8.370;2023-11-18T03:25:49;99050.94;;;2.40;100.00
18858;BME280;9558;50.178;8.370;2023-11-18T03:28:37;99047.69;;;2.38;100.00
18858;BME280;9558;50.178;8.370;2023-11-18T03:31:24;99045.03;;;2.27;100.00
18858;BME280;9558;50.178;8.370;2023-11-18T03:34:13;99053.09;;;2.20;100.00
18858;BME280;9558;50.178;8.370;2023-11-18T03:36:59;99057.88;;;2.12;100.00
18858;BME280;9558;50.178;8.370;2023-11-18T03:39:46;99059.88;;;2.07;100.00
18858;BME280;9558;50.178;8.370;2023-11-18T03:42:33;99065.84;;;2.07;100.00
18858;BME280;9558;50.178;8.370;2023-11-18T03:45:22;99063.38;;;2.06;100.00
18858;BME280;9558;50.178;8.370;2023-11-18T03:48:09;99076.84;;;2.08;100.00
18858;BME280;9558;50.178;8.370;2023-11-18T03:51:02;99075.03;;;2.10;100.00
18858;BME280;9558;50.178;8.370;2023-11-18T03:53:49;99074.84;;;2.13;100.00
18858;BME280;9558;50.178;8.370;2023-11-18T03:56:36;99069.53;;;2.16;100.00
18858;BME280;9558;50.178;8.370;2023-11-18T03:59:22;99043.78;;;2.19;100.00
18858;BME280;9558;50.178;8.370;2023-11-18T04:02:09;99040.31;;;2.20;100.00
18858;BME280;9558;50.178;8.370;2023-11-18T04:04:57;99037.66;;;2.22;100.00
18858;BME280;9558;50.178;8.370;2023-11-18T04:07:45;99033.16;;;2.25;100.00
18858;BME280;9558;50.178;8.370;2023-11-18T04:10:32;99043.16;;;2.29;100.00
18858;BME280;9558;50.178;8.370;2023-11-18T04:13:18;99053.91;;;2.34;100.00
18858;BME280;9558;50.178;8.370;2023-11-18T04:16:06;99043.00;;;2.32;100.00
18858;BME280;9558;50.178;8.370;2023-11-18T04:18:52;99032.78;;;2.32;100.00
18858;BME280;9558;50.178;8.370;2023-11-18T04:21:39;99036.13;;;2.32;100.00
18858;BME280;9558;50.178;8.370;2023-11-18T04:24:27;99037.16;;;2.30;100.00
18858;BME280;9558;50.178;8.370;2023-11-18T04:27:14;99040.63;;;2.29;100.00
18858;BME280;9558;50.178;8.370;2023-11-18T04:30:01;99049.00;;;2.31;100.00
18858;BME280;9558;50.178;8.370;2023-11-18T04:32:48;99044.81;;;2.30;100.00
18858;BME280;9558;50.178;8.370;2023-11-18T04:35:37;99046.47;;;2.31;100.00
18858;BME280;9558;50.178;8.370;2023-11-18T04:38:24;99049.94;;;2.30;100.00
18858;BME280;9558;50.178;8.370;2023-11-18T04:41:13;99055.25;;;2.27;100.00
18858;BME280;9558;50.178;8.370;2023-11-18T04:43:59;99055.25;;;2.27;100.00
18858;BME280;9558;50.178;8.370;2023-11-18T04:46:46;99056.16;;;2.25;100.00
18858;BME280;9558;50.178;8.370;2023-11-18T04:49:33;99054.53;;;2.24;100.00
18858;BME280;9558;50.178;8.370;2023-11-18T04:52:20;99051.97;;;2.24;100.00
18858;BME280;9558;50.178;8.370;2023-11-18T04:55:07;99056.34;;;2.22;100.00
18858;BME280;9558;50.178;8.370;2023-11-18T04:57:57;99059.91;;;2.20;100.00
18858;BME280;9558;50.178;8.370;2023-11-18T05:00:43;99053.47;;;2.14;100.00
18858;BME280;9558;50.178;8.370;2023-11-18T05:03:30;99047.03;;;2.08;100.00
18858;BME280;9558;50.178;8.370;2023-11-18T05:06:17;99042.03;;;2.07;100.00
18858;BME280;9558;50.178;8.370;2023-11-18T05:09:05;99036.41;;;2.02;100.00
18858;BME280;9558;50.178;8.370;2023-11-18T05:11:53;99039.66;;;2.04;100.00
18858;BME280;9558;50.178;8.370;2023-11-18T05:14:41;99035.56;;;2.01;100.00
18858;BME280;9558;50.178;8.370;2023-11-18T05:17:28;99027.09;;;2.01;100.00
18858;BME280;9558;50.178;8.370;2023-11-18T05:20:15;99027.31;;;1.98;100.00
18858;BME280;9558;50.178;8.370;2023-11-18T05:23:03;99028.22;;;1.97;100.00
18858;BME280;9558;50.178;8.370;2023-11-18T05:25:49;99033.31;;;1.97;100.00
18858;BME280;9558;50.178;8.370;2023-11-18T05:28:36;99008.63;;;1.97;100.00
18858;BME280;9558;50.178;8.370;2023-11-18T05:31:25;99007.78;;;1.97;100.00
18858;BME280;9558;50.178;8.370;2023-11-18T05:34:11;99002.69;;;1.97;100.00
18858;BME280;9558;50.178;8.370;2023-11-18T05:36:58;99009.34;;;1.99;100.00
18858;BME280;9558;50.178;8.370;2023-11-18T05:39:46;99009.25;;;2.01;100.00
18858;BME280;9558;50.178;8.370;2023-11-18T05:42:34;99006.69;;;2.01;100.00
18858;BME280;9558;50.178;8.370;2023-11-18T05:45:22;98998.81;;;2.04;100.00
18858;BME280;9558;50.178;8.370;2023-11-18T05:48:18;99002.09;;;2.06;100.00
18858;BME280;9558;50.178;8.370;2023-11-18T05:51:05;99009.47;;;2.11;100.00
18858;BME280;9558;50.178;8.370;2023-11-18T05:53:52;98997.81;;;2.19;100.00
18858;BME280;9558;50.178;8.370;2023-11-18T05:56:39;98994.34;;;2.20;100.00
18858;BME280;9558;50.178;8.370;2023-11-18T05:59:25;98992.72;;;2.19;100.00
18858;BME280;9558;50.178;8.370;2023-11-18T06:02:12;98996.28;;;2.30;100.00
18858;BME280;9558;50.178;8.370;2023-11-18T06:05:05;98990.97;;;2.33;100.00
18858;BME280;9558;50.178;8.370;2023-11-18T06:07:52;98999.97;;;2.38;100.00
18858;BME280;9558;50.178;8.370;2023-11-18T06:10:39;99001.50;;;2.41;100.00
18858;BME280;9558;50.178;8.370;2023-11-18T06:13:26;99004.78;;;2.43;100.00
18858;BME280;9558;50.178;8.370;2023-11-18T06:16:13;99011.31;;;2.47;100.00
18858;BME280;9558;50.178;8.370;2023-11-18T06:19:01;99007.13;;;2.46;100.00
18858;BME280;9558;50.178;8.370;2023-11-18T06:21:51;99008.75;;;2.47;100.00
18858;BME280;9558;50.178;8.370;2023-11-18T06:24:38;99008.34;;;2.53;100.00
18858;BME280;9558;50.178;8.370;2023-11-18T06:27:25;98999.78;;;2.54;100.00
18858;BME280;9558;50.178;8.370;2023-11-18T06:30:13;99011.59;;;2.55;100.00
18858;BME280;9558;50.178;8.370;2023-11-18T06:33:01;99004.69;;;2.57;100.00
18858;BME280;9558;50.178;8.370;2023-11-18T06:35:48;99014.59;;;2.62;100.00
18858;BME280;9558;50.178;8.370;2023-11-18T06:38:36;99010.91;;;2.66;100.00
18858;BME280;9558;50.178;8.370;2023-11-18T06:41:23;99015.81;;;2.69;100.00
18858;BME280;9558;50.178;8.370;2023-11-18T06:44:11;99019.91;;;2.72;100.00
18858;BME280;9558;50.178;8.370;2023-11-18T06:47:03;99016.41;;;2.73;100.00
18858;BME280;9558;50.178;8.370;2023-11-18T06:49:51;99016.91;;;2.78;100.00
18858;BME280;9558;50.178;8.370;2023-11-18T06:52:38;99011.47;;;2.83;100.00
18858;BME280;9558;50.178;8.370;2023-11-18T06:55:26;99013.75;;;2.87;100.00
18858;BME280;9558;50.178;8.370;2023-11-18T06:58:13;99017.69;;;2.91;100.00
18858;BME280;9558;50.178;8.370;2023-11-18T07:01:00;99022.53;;;2.96;100.00
18858;BME280;9558;50.178;8.370;2023-11-18T07:03:47;99015.22;;;3.03;100.00
18858;BME280;9558;50.178;8.370;2023-11-18T07:06:38;99013.97;;;3.08;100.00
18858;BME280;9558;50.178;8.370;2023-11-18T07:09:25;99006.81;;;3.14;100.00
18858;BME280;9558;50.178;8.370;2023-11-18T07:12:13;98995.56;;;3.16;100.00
18858;BME280;9558;50.178;8.370;2023-11-18T07:15:00;99001.16;;;3.21;100.00
18858;BME280;9558;50.178;8.370;2023-11-18T07:17:47;98995.00;;;3.24;100.00
18858;BME280;9558;50.178;8.370;2023-11-18T07:20:34;98992.13;;;3.28;100.00
18858;BME280;9558;50.178;8.370;2023-11-18T07:23:21;98997.84;;;3.32;100.00
18858;BME280;9558;50.178;8.370;2023-11-18T07:26:08;99000.09;;;3.37;100.00
18858;BME280;9558;50.178;8.370;2023-11-18T07:28:56;99000.81;;;3.39;100.00
18858;BME280;9558;50.178;8.370;2023-11-18T07:31:43;99016.63;;;3.44;100.00
18858;BME280;9558;50.178;8.370;2023-11-18T07:34:31;99034.22;;;3.49;100.00
18858;BME280;9558;50.178;8.370;2023-11-18T07:37:18;99032.03;;;3.55;100.00
18858;BME280;9558;50.178;8.370;2023-11-18T07:40:06;99027.53;;;3.59;100.00
18858;BME280;9558;50.178;8.370;2023-11-18T07:42:54;99018.38;;;3.68;100.00
18858;BME280;9558;50.178;8.370;2023-11-18T07:45:43;99024.91;;;3.72;100.00
18858;BME280;9558;50.178;8.370;2023-11-18T07:48:32;99028.56;;;3.80;100.00
18858;BME280;9558;50.178;8.370;2023-11-18T07:51:21;99015.31;;;3.87;100.00
18858;BME280;9558;50.178;8.370;2023-11-18T07:54:08;99040.09;;;3.86;100.00
18858;BME280;9558;50.178;8.370;2023-11-18T07:56:55;99042.09;;;3.94;100.00
18858;BME280;9558;50.178;8.370;2023-11-18T07:59:42;99032.94;;;4.03;100.00
18858;BME280;9558;50.178;8.370;2023-11-18T08:02:30;99040.84;;;4.00;100.00
18858;BME280;9558;50.178;8.370;2023-11-18T08:05:17;99040.38;;;4.06;100.00
18858;BME280;9558;50.178;8.370;2023-11-18T08:08:05;99033.19;;;4.11;100.00
18858;BME280;9558;50.178;8.370;2023-11-18T08:10:51;99035.28;;;4.17;100.00
18858;BME280;9558;50.178;8.370;2023-11-18T08:13:39;99038.13;;;4.25;100.00
18858;BME280;9558;50.178;8.370;2023-11-18T08:16:26;99040.34;;;4.30;100.00
18858;BME280;9558;50.178;8.370;2023-11-18T08:19:16;99051.56;;;4.40;100.00
18858;BME280;9558;50.178;8.370;2023-11-18T08:22:03;99044.22;;;4.47;100.00
18858;BME280;9558;50.178;8.370;2023-11-18T08:24:51;99038.53;;;4.55;100.00
18858;BME280;9558;50.178;8.370;2023-11-18T08:27:39;99032.94;;;4.61;100.00
18858;BME280;9558;50.178;8.370;2023-11-18T08:30:26;99023.59;;;4.71;100.00
18858;BME280;9558;50.178;8.370;2023-11-18T08:33:13;99034.22;;;4.78;100.00
18858;BME280;9558;50.178;8.370;2023-11-18T08:36:01;99035.63;;;4.82;100.00
18858;BME280;9558;50.178;8.370;2023-11-18T08:38:48;99031.91;;;4.86;100.00
18858;BME280;9558;50.178;8.370;2023-11-18T08:41:35;99023.72;;;4.92;100.00
18858;BME280;9558;50.178;8.370;2023-11-18T08:44:24;99024.88;;;4.99;100.00
18858;BME280;9558;50.178;8.370;2023-11-18T08:47:10;99019.06;;;5.09;100.00
18858;BME280;9558;50.178;8.370;2023-11-18T08:49:58;99012.84;;;5.11;100.00
18858;BME280;9558;50.178;8.370;2023-11-18T08:52:58;99010.63;;;5.18;100.00
18858;BME280;9558;50.178;8.370;2023-11-18T08:55:45;99008.75;;;5.20;100.00
18858;BME280;9558;50.178;8.370;2023-11-18T08:58:41;99009.81;;;5.17;100.00
18858;BME280;9558;50.178;8.370;2023-11-18T09:01:30;99021.38;;;5.23;100.00
18858;BME280;9558;50.178;8.370;2023-11-18T09:04:17;99016.78;;;5.27;100.00
18858;BME280;9558;50.178;8.370;2023-11-18T09:07:05;99004.53;;;5.30;100.00
18858;BME280;9558;50.178;8.370;2023-11-18T09:09:56;99000.09;;;5.32;100.00
18858;BME280;9558;50.178;8.370;2023-11-18T09:12:43;99000.56;;;5.38;100.00
18858;BME280;9558;50.178;8.370;2023-11-18T09:15:30;99003.81;;;5.40;100.00
18858;BME280;9558;50.178;8.370;2023-11-18T09:18:17;99016.53;;;5.41;100.00
18858;BME280;9558;50.178;8.370;2023-11-18T09:21:06;99012.91;;;5.44;100.00
18858;BME280;9558;50.178;8.370;2023-11-18T09:23:56;99009.16;;;5.48;100.00
18858;BME280;9558;50.178;8.370;2023-11-18T09:26:45;98995.53;;;5.47;100.00
18858;BME280;9558;50.178;8.370;2023-11-18T09:29:33;99011.59;;;5.49;100.00
18858;BME280;9558;50.178;8.370;2023-11-18T09:32:23;99018.25;;;5.52;100.00
18858;BME280;9558;50.178;8.370;2023-11-18T09:35:11;99014.75;;;5.53;100.00
18858;BME280;9558;50.178;8.370;2023-11-18T09:37:58;99014.50;;;5.56;100.00
18858;BME280;9558;50.178;8.370;2023-11-18T09:40:47;99018.47;;;5.60;100.00
18858;BME280;9558;50.178;8.370;2023-11-18T09:43:36;99017.72;;;5.69;100.00
18858;BME280;9558;50.178;8.370;2023-11-18T09:46:29;99021.47;;;5.65;100.00
18858;BME280;9558;50.178;8.370;2023-11-18T09:49:24;99013.50;;;5.68;100.00
18858;BME280;9558;50.178;8.370;2023-11-18T09:52:19;99006.81;;;5.77;100.00
18858;BME280;9558;50.178;8.370;2023-11-18T09:55:15;99014.44;;;5.79;100.00
18858;BME280;9558;50.178;8.370;2023-11-18T09:58:15;99001.19;;;5.83;100.00
18858;BME280;9558;50.178;8.370;2023-11-18T10:01:03;99016.50;;;5.85;100.00
18858;BME280;9558;50.178;8.370;2023-11-18T10:03:50;99013.34;;;5.81;100.00
18858;BME280;9558;50.178;8.370;2023-11-18T10:06:38;99014.19;;;5.82;100.00
18858;BME280;9558;50.178;8.370;2023-11-18T10:09:26;99014.91;;;5.72;100.00
18858;BME280;9558;50.178;8.370;2023-11-18T10:12:17;99018.19;;;5.75;100.00
18858;BME280;9558;50.178;8.370;2023-11-18T10:15:11;99012.53;;;5.81;100.00
18858;BME280;9558;50.178;8.370;2023-11-18T10:18:02;99018.72;;;5.78;100.00
18858;BME280;9558;50.178;8.370;2023-11-18T10:20:53;99021.41;;;5.77;100.00
18858;BME280;9558;50.178;8.370;2023-11-18T10:23:39;99029.84;;;5.79;100.00
18858;BME280;9558;50.178;8.370;2023-11-18T10:26:45;99017.41;;;5.84;100.00
18858;BME280;9558;50.178;8.370;2023-11-18T10:29:33;99012.28;;;5.84;100.00
18858;BME280;9558;50.178;8.370;2023-11-18T10:32:21;99008.53;;;5.88;100.00
18858;BME280;9558;50.178;8.370;2023-11-18T10:35:14;98998.94;;;5.90;100.00
18858;BME280;9558;50.178;8.370;2023-11-18T10:38:01;98977.72;;;5.88;100.00
18858;BME280;9558;50.178;8.370;2023-11-18T10:40:50;98999.75;;;5.91;100.00
18858;BME280;9558;50.178;8.370;2023-11-18T10:43:38;99002.88;;;5.94;100.00
18858;BME280;9558;50.178;8.370;2023-11-18T10:46:27;98992.59;;;5.94;100.00
18858;BME280;9558;50.178;8.370;2023-11-18T10:49:15;98977.41;;;6.02;100.00
18858;BME280;9558;50.178;8.370;2023-11-18T10:52:04;98969.97;;;5.99;100.00
18858;BME280;9558;50.178;8.370;2023-11-18T10:54:53;98970.63;;;6.01;100.00
18858;BME280;9558;50.178;8.370;2023-11-18T10:57:41;98965.94;;;6.07;100.00
18858;BME280;9558;50.178;8.370;2023-11-18T11:00:28;98966.88;;;6.05;100.00
18858;BME280;9558;50.178;8.370;2023-11-18T11:03:19;98972.84;;;6.06;100.00
18858;BME280;9558;50.178;8.370;2023-11-18T11:06:15;98961.19;;;6.02;100.00
18858;BME280;9558;50.178;8.370;2023-11-18T11:09:05;98947.28;;;6.04;100.00
18858;BME280;9558;50.178;8.370;2023-11-18T11:12:00;98951.06;;;6.00;100.00
18858;BME280;9558;50.178;8.370;2023-11-18T11:14:55;98928.84;;;5.99;100.00
18858;BME280;9558;50.178;8.370;2023-11-18T11:17:49;98935.88;;;5.97;100.00
18858;BME280;9558;50.178;8.370;2023-11-18T11:20:42;98929.66;;;6.00;100.00
18858;BME280;9558;50.178;8.370;2023-11-18T11:23:35;98923.03;;;5.97;100.00
18858;BME280;9558;50.178;8.370;2023-11-18T11:26:41;98919.56;;;5.87;100.00
18858;BME280;9558;50.178;8.370;2023-11-18T11:29:42;98913.94;;;5.93;100.00
18858;BME280;9558;50.178;8.370;2023-11-18T11:32:35;98903.78;;;5.92;100.00
18858;BME280;9558;50.178;8.370;2023-11-18T11:35:30;98893.38;;;5.93;100.00
18858;BME280;9558;50.178;8.370;2023-11-18T11:38:18;98879.16;;;5.89;100.00
18858;BME280;9558;50.178;8.370;2023-11-18T11:41:07;98876.72;;;5.87;100.00
18858;BME280;9558;50.178;8.370;2023-11-18T11:43:56;98876.84;;;5.86;100.00
18858;BME280;9558;50.178;8.370;2023-11-18T11:46:43;98878.97;;;5.81;100.00
18858;BME280;9558;50.178;8.370;2023-11-18T11:49:33;98876.84;;;5.86;100.00
18858;BME280;9558;50.178;8.370;2023-11-18T11:52:27;98863.75;;;5.89;100.00
18858;BME280;9558;50.178;8.370;2023-11-18T11:55:19;98857.91;;;5.87;100.00
18858;BME280;9558;50.178;8.370;2023-11-18T11:58:28;98864.41;;;5.91;100.00
18858;BME280;9558;50.178;8.370;2023-11-18T12:01:23;98862.78;;;5.90;100.00
18858;BME280;9558;50.178;8.370;2023-11-18T12:04:15;98845.50;;;5.92;100.00
18858;BME280;9558;50.178;8.370;2023-11-18T12:07:09;98845.75;;;5.89;100.00
18858;BME280;9558;50.178;8.370;2023-11-18T12:10:00;98838.97;;;5.88;100.00
18858;BME280;9558;50.178;8.370;2023-11-18T12:13:06;98837.66;;;5.94;100.00
18858;BME280;9558;50.178;8.370;2023-11-18T12:15:55;98832.25;;;5.97;100.00
18858;BME280;9558;50.178;8.370;2023-11-18T12:22:11;98825.22;;;5.89;100.00
18858;BME280;9558;50.178;8.370;2023-11-18T12:25:30;98831.84;;;5.92;100.00
18858;BME280;9558;50.178;8.370;2023-11-18T12:28:25;98832.66;;;5.92;100.00
18858;BME280;9558;50.178;8.370;2023-11-18T12:31:38;98843.88;;;5.91;100.00
18858;BME280;9558;50.178;8.370;2023-11-18T12:34:49;98838.19;;;5.87;100.00
18858;BME280;9558;50.178;8.370;2023-11-18T12:38:09;98839.66;;;5.90;100.00
18858;BME280;9558;50.178;8.370;2023-11-18T12:41:01;98829.38;;;5.90;100.00
18858;BME280;9558;50.178;8.370;2023-11-18T12:44:08;98821.69;;;5.90;100.00
18858;BME280;9558;50.178;8.370;2023-11-18T12:47:03;98807.22;;;5.89;100.00
18858;BME280;9558;50.178;8.370;2023-11-18T12:49:56;98805.75;;;5.96;100.00
18858;BME280;9558;50.178;8.370;2023-11-18T12:52:45;98790.84;;;5.90;100.00
18858;BME280;9558;50.178;8.370;2023-11-18T12:55:33;98772.78;;;5.92;100.00
18858;BME280;9558;50.178;8.370;2023-11-18T12:58:21;98780.06;;;5.96;100.00
18858;BME280;9558;50.178;8.370;2023-11-18T13:01:08;98768.28;;;5.94;100.00
18858;BME280;9558;50.178;8.370;2023-11-18T13:03:59;98766.06;;;6.00;100.00
18858;BME280;9558;50.178;8.370;2023-11-18T13:06:48;98759.28;;;5.99;100.00
18858;BME280;9558;50.178;8.370;2023-11-18T13:09:37;98750.91;;;5.97;100.00
18858;BME280;9558;50.178;8.370;2023-11-18T13:12:26;98737.66;;;6.02;100.00
18858;BME280;9558;50.178;8.370;2023-11-18T13:15:14;98734.69;;;6.07;100.00
18858;BME280;9558;50.178;8.370;2023-11-18T13:18:03;98736.59;;;6.04;100.00
18858;BME280;9558;50.178;8.370;2023-11-18T13:20:55;98726.97;;;6.07;100.00
18858;BME280;9558;50.178;8.370;2023-11-18T13:23:48;98708.84;;;6.08;100.00
18858;BME280;9558;50.178;8.370;2023-11-18T13:26:35;98713.47;;;6.04;100.00
18858;BME280;9558;50.178;8.370;2023-11-18T13:29:23;98723.34;;;6.09;100.00
18858;BME280;9558;50.178;8.370;2023-11-18T13:32:11;98708.72;;;6.10;100.00
18858;BME280;9558;50.178;8.370;2023-11-18T13:35:00;98707.53;;;6.14;100.00
18858;BME280;9558;50.178;8.370;2023-11-18T13:37:48;98703.03;;;6.16;100.00
18858;BME280;9558;50.178;8.370;2023-11-18T13:40:44;98703.59;;;6.19;100.00
18858;BME280;9558;50.178;8.370;2023-11-18T13:43:41;98690.19;;;6.16;100.00
18858;BME280;9558;50.178;8.370;2023-11-18T13:46:28;98686.81;;;6.15;100.00
18858;BME280;9558;50.178;8.370;2023-11-18T13:49:15;98684.69;;;6.20;100.00
18858;BME280;9558;50.178;8.370;2023-11-18T13:52:02;98687.09;;;6.22;100.00
18858;BME280;9558;50.178;8.370;2023-11-18T13:54:49;98683.84;;;6.20;100.00
18858;BME280;9558;50.178;8.370;2023-11-18T13:57:42;98681.97;;;6.22;100.00
18858;BME280;9558;50.178;8.370;2023-11-18T14:00:29;98688.75;;;6.23;100.00
18858;BME280;9558;50.178;8.370;2023-11-18T14:03:17;98682.50;;;6.26;100.00
18858;BME280;9558;50.178;8.370;2023-11-18T14:06:07;98681.69;;;6.25;100.00
18858;BME280;9558;50.178;8.370;2023-11-18T14:08:56;98685.47;;;6.21;100.00
18858;BME280;9558;50.178;8.370;2023-11-18T14:11:42;98665.06;;;6.29;100.00
18858;BME280;9558;50.178;8.370;2023-11-18T14:14:31;98667.63;;;6.29;100.00
18858;BME280;9558;50.178;8.370;2023-11-18T14:17:18;98655.16;;;6.34;100.00
18858;BME280;9558;50.178;8.370;2023-11-18T14:20:06;98651.13;;;6.32;100.00
18858;BME280;9558;50.178;8.370;2023-11-18T14:22:58;98651.66;;;6.35;100.00
18858;BME280;9558;50.178;8.370;2023-11-18T14:25:44;98655.72;;;6.38;100.00
18858;BME280;9558;50.178;8.370;2023-11-18T14:28:31;98658.16;;;6.39;100.00
18858;BME280;9558;50.178;8.370;2023-11-18T14:31:21;98653.00;;;6.39;100.00
18858;BME280;9558;50.178;8.370;2023-11-18T14:34:08;98648.16;;;6.36;100.00
18858;BME280;9558;50.178;8.370;2023-11-18T14:36:55;98651.53;;;6.37;100.00
18858;BME280;9558;50.178;8.370;2023-11-18T14:39:42;98660.59;;;6.41;100.00
18858;BME280;9558;50.178;8.370;2023-11-18T14:42:29;98668.03;;;6.44;100.00
18858;BME280;9558;50.178;8.370;2023-11-18T14:45:16;98659.22;;;6.47;100.00
18858;BME280;9558;50.178;8.370;2023-11-18T14:48:05;98660.06;;;6.37;100.00
18858;BME280;9558;50.178;8.370;2023-11-18T14:50:53;98656.25;;;6.42;100.00
18858;BME280;9558;50.178;8.370;2023-11-18T14:53:42;98655.72;;;6.38;100.00
18858;BME280;9558;50.178;8.370;2023-11-18T14:56:29;98644.63;;;6.37;100.00
18858;BME280;9558;50.178;8.370;2023-11-18T14:59:16;98629.06;;;6.39;100.00
18858;BME280;9558;50.178;8.370;2023-11-18T15:02:03;98627.31;;;6.39;100.00
18858;BME280;9558;50.178;8.370;2023-11-18T15:04:51;98615.28;;;6.30;100.00
18858;BME280;9558;50.178;8.370;2023-11-18T15:07:38;98620.66;;;6.37;100.00
18858;BME280;9558;50.178;8.370;2023-11-18T15:10:26;98612.72;;;6.30;100.00